GEC8443 ZGSZ-OMDW

Flight info

Callsign GEC8443
Flight time 7h 57m
Altitude 34100
Route TOMUD2 TOMUD R200 LH R339 BSE A599 LINSO/N0488F340 A599 CHILA/N0485F360 A599 CTG B465 CEA A791 BPL L639 AAE/N0478F380 L639 RASKI L301 RAGMA N571 VUSET A454 PASOV M564 VAXAS/N0420F240 M564 UMAMI
Aircraft B77L/H-SDE2E3FGHIJ1J3J4J5M1P2RWXYZ/LB1D1

Departure

Time 2026-04-10 12:26
Airport Shenzhen Bao'an International Airport (ZGSZ)

Arrival

Time 2026-04-10 20:23
Airport Al Maktoum International Airport (OMDW)
Time Latitude Longitude Altitude Speed Heading
2026-04-10 11:56 22.63126 113.82073 23 ft 0 kts 63°
2026-04-10 12:13 22.63124 113.82068 20 ft 2 kts 63°
2026-04-10 12:13 22.63117 113.82053 10 ft 2 kts 63°
2026-04-10 12:13 22.63110 113.82037 5 ft 2 kts 48°
2026-04-10 12:13 22.63095 113.82033 7 ft 2 kts 337°
2026-04-10 12:14 22.63081 113.82039 23 ft 0 kts 324°
2026-04-10 12:18 22.63109 113.82023 9 ft 9 kts 333°
2026-04-10 12:18 22.63164 113.81989 20 ft 9 kts 316°
2026-04-10 12:18 22.63161 113.81924 22 ft 10 kts 240°
2026-04-10 12:18 22.63129 113.81860 20 ft 10 kts 259°
2026-04-10 12:19 22.63133 113.81799 20 ft 9 kts 252°
2026-04-10 12:19 22.63135 113.81727 22 ft 11 kts 310°
2026-04-10 12:19 22.63197 113.81682 21 ft 11 kts 331°
2026-04-10 12:19 22.63263 113.81645 21 ft 11 kts 333°
2026-04-10 12:20 22.63359 113.81593 20 ft 18 kts 333°
2026-04-10 12:20 22.63470 113.81533 21 ft 18 kts 334°
2026-04-10 12:20 22.63581 113.81474 21 ft 18 kts 334°
2026-04-10 12:20 22.63692 113.81413 24 ft 18 kts 333°
2026-04-10 12:21 22.63803 113.81352 25 ft 18 kts 333°
2026-04-10 12:21 22.63912 113.81292 27 ft 18 kts 332°
2026-04-10 12:21 22.64022 113.81230 25 ft 18 kts 333°
2026-04-10 12:21 22.64132 113.81170 23 ft 18 kts 334°
2026-04-10 12:22 22.64243 113.81109 23 ft 18 kts 334°
2026-04-10 12:22 22.64354 113.81049 26 ft 18 kts 332°
2026-04-10 12:22 22.64465 113.80987 24 ft 18 kts 333°
2026-04-10 12:22 22.64575 113.80927 23 ft 18 kts 333°
2026-04-10 12:23 22.64686 113.80867 27 ft 18 kts 333°
2026-04-10 12:23 22.64795 113.80806 25 ft 18 kts 333°
2026-04-10 12:23 22.64906 113.80746 24 ft 18 kts 333°
2026-04-10 12:23 22.65017 113.80686 25 ft 18 kts 333°
2026-04-10 12:24 22.65127 113.80624 26 ft 18 kts 332°
2026-04-10 12:24 22.65238 113.80564 24 ft 18 kts 335°
2026-04-10 12:24 22.65337 113.80506 25 ft 14 kts 314°
2026-04-10 12:24 22.65329 113.80407 28 ft 14 kts 243°
2026-04-10 12:25 22.65262 113.80342 27 ft 14 kts 176°
2026-04-10 12:25 22.65233 113.80351 26 ft 0 kts 155°
2026-04-10 12:25 22.65015 113.80469 28 ft 78 kts 153°
2026-04-10 12:25 22.64290 113.80866 26 ft 153 kts 153°
2026-04-10 12:26 22.63182 113.81451 255 ft 193 kts 154°
2026-04-10 12:26 22.61940 113.82156 803 ft 213 kts 157°
2026-04-10 12:26 22.60430 113.82480 1234 ft 230 kts 192°
2026-04-10 12:26 22.59021 113.81760 2109 ft 227 kts 210°
2026-04-10 12:27 22.57637 113.80877 2770 ft 235 kts 208°
2026-04-10 12:27 22.56201 113.80036 3533 ft 241 kts 209°
2026-04-10 12:27 22.54691 113.79187 4244 ft 249 kts 209°
2026-04-10 12:27 22.53128 113.78327 4989 ft 255 kts 210°
2026-04-10 12:28 22.51541 113.77464 5779 ft 256 kts 209°
2026-04-10 12:28 22.49941 113.76588 6504 ft 258 kts 212°
2026-04-10 12:28 22.48615 113.75302 7036 ft 260 kts 238°
2026-04-10 12:28 22.47919 113.73487 7745 ft 261 kts 258°
2026-04-10 12:29 22.47743 113.71590 8772 ft 249 kts 264°
2026-04-10 12:29 22.47616 113.69720 9532 ft 250 kts 263°
2026-04-10 12:29 22.47486 113.67864 10152 ft 252 kts 263°
2026-04-10 12:29 22.47353 113.65971 10837 ft 252 kts 263°
2026-04-10 12:30 22.47217 113.64086 11564 ft 251 kts 263°
2026-04-10 12:30 22.47080 113.62204 12303 ft 251 kts 263°
2026-04-10 12:30 22.46927 113.60329 13027 ft 249 kts 258°
2026-04-10 12:30 22.46230 113.58631 13548 ft 255 kts 228°
2026-04-10 12:31 22.44913 113.57343 14042 ft 256 kts 230°
2026-04-10 12:31 22.43835 113.55814 14465 ft 257 kts 233°
2026-04-10 12:31 22.42495 113.54538 14935 ft 264 kts 219°
2026-04-10 12:31 22.41019 113.53346 15499 ft 266 kts 223°
2026-04-10 12:32 22.39586 113.52080 16147 ft 266 kts 224°
2026-04-10 12:32 22.38134 113.50835 16715 ft 270 kts 215°
2026-04-10 12:32 22.36343 113.50090 17176 ft 283 kts 199°
2026-04-10 12:32 22.34403 113.49634 17727 ft 287 kts 198°
2026-04-10 12:33 22.32452 113.49168 18316 ft 288 kts 199°
2026-04-10 12:33 22.30484 113.48694 18818 ft 292 kts 199°
2026-04-10 12:33 22.28518 113.48216 19294 ft 295 kts 199°
2026-04-10 12:33 22.26502 113.47724 19749 ft 299 kts 199°
2026-04-10 12:34 22.24464 113.47207 20201 ft 300 kts 204°
2026-04-10 12:34 22.22666 113.46148 20498 ft 295 kts 227°
2026-04-10 12:34 22.21368 113.44454 20923 ft 293 kts 243°
2026-04-10 12:34 22.20512 113.42457 21406 ft 294 kts 250°
2026-04-10 12:35 22.19762 113.40392 21904 ft 297 kts 251°
2026-04-10 12:35 22.19016 113.38296 22394 ft 302 kts 251°
2026-04-10 12:35 22.18263 113.36198 22853 ft 306 kts 251°
2026-04-10 12:35 22.17484 113.34049 23343 ft 310 kts 251°
2026-04-10 12:36 22.16686 113.31871 23742 ft 314 kts 251°
2026-04-10 12:36 22.15873 113.29666 24149 ft 318 kts 251°
2026-04-10 12:36 22.15047 113.27436 24560 ft 322 kts 251°
2026-04-10 12:36 22.14209 113.25180 24987 ft 326 kts 251°
2026-04-10 12:37 22.13348 113.22907 25409 ft 330 kts 250°
2026-04-10 12:37 22.12413 113.20634 25817 ft 334 kts 249°
2026-04-10 12:37 22.11448 113.18346 26240 ft 337 kts 249°
2026-04-10 12:37 22.10469 113.16028 26639 ft 342 kts 249°
2026-04-10 12:38 22.09497 113.13712 27048 ft 345 kts 249°
2026-04-10 12:38 22.08503 113.11337 27474 ft 349 kts 249°
2026-04-10 12:38 22.07504 113.08943 27970 ft 351 kts 249°
2026-04-10 12:38 22.06500 113.06533 28405 ft 354 kts 249°
2026-04-10 12:39 22.05486 113.04098 28795 ft 359 kts 249°
2026-04-10 12:39 22.04458 113.01631 29178 ft 363 kts 249°
2026-04-10 12:39 22.03420 112.99123 29517 ft 369 kts 250°
2026-04-10 12:39 22.02412 112.96566 29895 ft 372 kts 250°
2026-04-10 12:40 22.01429 112.94017 30242 ft 375 kts 250°
2026-04-10 12:40 22.00425 112.91413 30610 ft 378 kts 250°
2026-04-10 12:40 21.99408 112.88786 30951 ft 381 kts 250°
2026-04-10 12:40 21.98380 112.86144 31275 ft 384 kts 250°
2026-04-10 12:41 21.97340 112.83480 31598 ft 387 kts 250°
2026-04-10 12:41 21.96287 112.80795 31916 ft 390 kts 249°
2026-04-10 12:41 21.95210 112.78099 32225 ft 393 kts 249°
2026-04-10 12:41 21.94131 112.75417 32448 ft 400 kts 249°
2026-04-10 12:42 21.93013 112.72637 32496 ft 409 kts 249°
2026-04-10 12:42 21.90704 112.66894 32658 ft 426 kts 249°
2026-04-10 12:43 21.88300 112.60912 32800 ft 444 kts 249°
2026-04-10 12:43 21.86228 112.55763 32905 ft 457 kts 249°
2026-04-10 12:43 21.84543 112.51559 33025 ft 467 kts 249°
2026-04-10 12:44 21.83259 112.48332 33205 ft 471 kts 249°
2026-04-10 12:44 21.81969 112.45085 33441 ft 473 kts 249°
2026-04-10 12:44 21.80675 112.41828 33708 ft 474 kts 249°
2026-04-10 12:44 21.79376 112.38561 33885 ft 477 kts 248°
2026-04-10 12:45 21.78069 112.35279 33921 ft 477 kts 248°
2026-04-10 12:45 21.75905 112.29852 33938 ft 472 kts 248°
2026-04-10 12:46 21.72901 112.22334 33944 ft 469 kts 248°
2026-04-10 12:46 21.70742 112.16934 33950 ft 469 kts 248°
2026-04-10 12:47 21.68181 112.10536 33966 ft 469 kts 248°
2026-04-10 12:47 21.65598 112.04093 33952 ft 470 kts 248°
2026-04-10 12:48 21.63008 111.97639 33954 ft 470 kts 248°
2026-04-10 12:48 21.60412 111.91179 33949 ft 471 kts 248°
2026-04-10 12:49 21.57827 111.84756 33940 ft 472 kts 248°
2026-04-10 12:49 21.55622 111.78131 33954 ft 471 kts 254°
2026-04-10 12:50 21.53725 111.71377 33957 ft 472 kts 254°
2026-04-10 12:50 21.51813 111.64624 33944 ft 473 kts 254°
2026-04-10 12:51 21.49890 111.57910 33937 ft 474 kts 254°
2026-04-10 12:51 21.47943 111.51153 33947 ft 474 kts 254°
2026-04-10 12:52 21.45995 111.44400 33937 ft 473 kts 254°
2026-04-10 12:52 21.44046 111.37653 33931 ft 473 kts 254°
2026-04-10 12:53 21.42096 111.30913 33924 ft 473 kts 254°
2026-04-10 12:53 21.40157 111.24223 33932 ft 472 kts 254°
2026-04-10 12:54 21.38205 111.17495 33931 ft 472 kts 254°
2026-04-10 12:54 21.36247 111.10762 33929 ft 473 kts 253°
2026-04-10 12:55 21.34284 111.04020 33924 ft 474 kts 253°
2026-04-10 12:55 21.32328 110.97312 33920 ft 475 kts 253°
2026-04-10 12:56 21.30350 110.90544 33901 ft 476 kts 253°
2026-04-10 12:56 21.28369 110.83775 33916 ft 476 kts 253°
2026-04-10 12:57 21.26384 110.77001 33908 ft 476 kts 253°
2026-04-10 12:57 21.24411 110.70282 33898 ft 475 kts 253°
2026-04-10 12:58 21.22431 110.63546 33907 ft 473 kts 253°
2026-04-10 12:58 21.20452 110.56829 33900 ft 472 kts 253°
2026-04-10 12:59 21.18476 110.50128 33900 ft 471 kts 253°
2026-04-10 12:59 21.16515 110.43485 33896 ft 471 kts 253°
2026-04-10 13:00 21.14706 110.36783 33894 ft 466 kts 264°
2026-04-10 13:00 21.14675 110.33329 33913 ft 464 kts 277°
2026-04-10 13:00 21.15315 110.29949 33891 ft 464 kts 287°
2026-04-10 13:00 21.16597 110.26782 33892 ft 463 kts 298°
2026-04-10 13:01 21.18175 110.23773 33912 ft 465 kts 298°
2026-04-10 13:01 21.21320 110.17741 33914 ft 468 kts 298°
2026-04-10 13:02 21.24460 110.11594 33895 ft 471 kts 297°
2026-04-10 13:02 21.27584 110.05400 33895 ft 474 kts 297°
2026-04-10 13:03 21.30714 109.99170 33904 ft 475 kts 297°
2026-04-10 13:03 21.33844 109.92936 33895 ft 475 kts 297°
2026-04-10 13:04 21.36947 109.86753 33891 ft 473 kts 297°
2026-04-10 13:04 21.40062 109.80540 33892 ft 472 kts 297°
2026-04-10 13:05 21.43164 109.74344 33887 ft 470 kts 297°
2026-04-10 13:05 21.46247 109.68179 33885 ft 468 kts 297°
2026-04-10 13:06 21.49295 109.62078 33887 ft 466 kts 297°
2026-04-10 13:06 21.52355 109.55943 33890 ft 465 kts 297°
2026-04-10 13:07 21.55406 109.49820 33885 ft 465 kts 297°
2026-04-10 13:07 21.58552 109.43738 33888 ft 467 kts 301°
2026-04-10 13:08 21.62480 109.38236 33888 ft 468 kts 308°
2026-04-10 13:08 21.66706 109.32900 33884 ft 468 kts 308°
2026-04-10 13:09 21.72986 109.24860 33879 ft 468 kts 308°
2026-04-10 13:09 21.77124 109.19529 33881 ft 467 kts 308°
2026-04-10 13:10 21.81286 109.14164 33883 ft 467 kts 308°
2026-04-10 13:10 21.85448 109.08798 33881 ft 466 kts 308°
2026-04-10 13:11 21.89625 109.03458 33878 ft 467 kts 308°
2026-04-10 13:11 21.93787 108.98153 33874 ft 466 kts 308°
2026-04-10 13:12 21.97966 108.92811 33885 ft 466 kts 307°
2026-04-10 13:12 22.02141 108.87465 33877 ft 466 kts 307°
2026-04-10 13:13 22.06308 108.82123 33869 ft 465 kts 307°
2026-04-10 13:13 22.10438 108.76824 33869 ft 464 kts 307°
2026-04-10 13:14 22.14599 108.71493 33867 ft 464 kts 307°
2026-04-10 13:14 22.18771 108.66169 33859 ft 465 kts 307°
2026-04-10 13:15 22.22941 108.60840 33861 ft 465 kts 307°
2026-04-10 13:15 22.27083 108.55538 33860 ft 465 kts 307°
2026-04-10 13:16 22.31256 108.50189 33850 ft 466 kts 307°
2026-04-10 13:16 22.35429 108.44835 33866 ft 466 kts 307°
2026-04-10 13:17 22.39577 108.39508 33855 ft 466 kts 307°
2026-04-10 13:17 22.43750 108.34143 33840 ft 466 kts 307°
2026-04-10 13:18 22.47914 108.28782 33842 ft 465 kts 307°
2026-04-10 13:18 22.52056 108.23415 33847 ft 464 kts 306°
2026-04-10 13:19 22.56175 108.18100 33852 ft 464 kts 307°
2026-04-10 13:19 22.60431 108.12843 33845 ft 465 kts 310°
2026-04-10 13:20 22.64890 108.07761 33851 ft 466 kts 310°
2026-04-10 13:20 22.69373 108.02686 33843 ft 466 kts 310°
2026-04-10 13:21 22.73804 107.97633 33844 ft 466 kts 310°
2026-04-10 13:21 22.78251 107.92538 33828 ft 465 kts 310°
2026-04-10 13:22 22.82684 107.87453 33819 ft 463 kts 310°
2026-04-10 13:22 22.87103 107.82380 33819 ft 462 kts 310°
2026-04-10 13:23 22.91485 107.77346 33811 ft 461 kts 310°
2026-04-10 13:23 22.95879 107.72290 33834 ft 460 kts 310°
2026-04-10 13:24 23.00274 107.67229 33816 ft 460 kts 310°
2026-04-10 13:24 23.04662 107.62176 33820 ft 460 kts 310°
2026-04-10 13:25 23.09050 107.57118 33824 ft 460 kts 310°
2026-04-10 13:25 23.13405 107.52100 33814 ft 459 kts 310°
2026-04-10 13:26 23.17777 107.47054 33812 ft 458 kts 310°
2026-04-10 13:26 23.22144 107.42007 33819 ft 458 kts 310°
2026-04-10 13:27 23.26514 107.36949 33827 ft 459 kts 309°
2026-04-10 13:27 23.30853 107.31925 33814 ft 459 kts 309°
2026-04-10 13:28 23.35215 107.26867 33812 ft 458 kts 309°
2026-04-10 13:28 23.39574 107.21811 33814 ft 458 kts 310°
2026-04-10 13:29 23.43933 107.16747 33805 ft 458 kts 310°
2026-04-10 13:29 23.48264 107.11712 33800 ft 459 kts 310°
2026-04-10 13:30 23.52628 107.06630 33799 ft 459 kts 310°
2026-04-10 13:30 23.56994 107.01544 33795 ft 459 kts 309°
2026-04-10 13:31 23.61353 106.96459 33783 ft 458 kts 309°
2026-04-10 13:31 23.65675 106.91413 33794 ft 458 kts 309°
2026-04-10 13:32 23.70019 106.86334 33791 ft 458 kts 309°
2026-04-10 13:32 23.74351 106.81264 33770 ft 458 kts 309°
2026-04-10 13:33 23.78654 106.76224 33796 ft 457 kts 309°
2026-04-10 13:33 23.82988 106.71140 33784 ft 457 kts 309°
2026-04-10 13:34 23.87316 106.66061 33786 ft 456 kts 309°
2026-04-10 13:34 23.91121 106.60621 33778 ft 447 kts 296°
2026-04-10 13:35 23.93549 106.54419 33777 ft 443 kts 283°
2026-04-10 13:35 23.94880 106.47914 33786 ft 441 kts 281°
2026-04-10 13:36 23.96164 106.41350 33785 ft 443 kts 281°
2026-04-10 13:36 23.97479 106.34765 33798 ft 444 kts 281°
2026-04-10 13:37 23.98812 106.28163 33793 ft 445 kts 281°
2026-04-10 13:37 24.00140 106.21595 33783 ft 446 kts 281°
2026-04-10 13:38 24.01477 106.14971 33798 ft 447 kts 282°
2026-04-10 13:38 24.02810 106.08340 33794 ft 447 kts 281°
2026-04-10 13:39 24.04139 106.01716 33812 ft 445 kts 281°
2026-04-10 13:39 24.05460 105.95145 33780 ft 444 kts 281°
2026-04-10 13:40 24.06772 105.88549 33831 ft 443 kts 281°
2026-04-10 13:40 24.08086 105.81940 33830 ft 445 kts 281°
2026-04-10 13:41 24.09402 105.75324 33831 ft 445 kts 281°
2026-04-10 13:41 24.10722 105.68742 33832 ft 447 kts 282°
2026-04-10 13:42 24.12316 105.62142 33845 ft 449 kts 284°
2026-04-10 13:42 24.13976 105.55567 33846 ft 448 kts 284°
2026-04-10 13:43 24.15590 105.49026 33849 ft 449 kts 283°
2026-04-10 13:43 24.17195 105.42417 33861 ft 450 kts 283°
2026-04-10 13:44 24.18799 105.35787 33866 ft 451 kts 283°
2026-04-10 13:44 24.20404 105.29147 33864 ft 451 kts 283°
2026-04-10 13:45 24.21995 105.22557 33869 ft 450 kts 283°
2026-04-10 13:45 24.23524 105.15924 33870 ft 449 kts 282°
2026-04-10 13:46 24.24979 105.09284 33874 ft 448 kts 282°
2026-04-10 13:46 24.26432 105.02644 33880 ft 448 kts 282°
2026-04-10 13:47 24.27884 104.96048 33875 ft 448 kts 282°
2026-04-10 13:47 24.29346 104.89411 33896 ft 447 kts 282°
2026-04-10 13:48 24.30803 104.82793 33899 ft 446 kts 282°
2026-04-10 13:48 24.32249 104.76201 33890 ft 444 kts 282°
2026-04-10 13:49 24.33676 104.69679 33900 ft 442 kts 282°
2026-04-10 13:49 24.35110 104.63114 33918 ft 443 kts 282°
2026-04-10 13:50 24.36543 104.56538 33918 ft 444 kts 282°
2026-04-10 13:50 24.37977 104.49946 33943 ft 445 kts 282°
2026-04-10 13:51 24.39399 104.43391 33942 ft 445 kts 282°
2026-04-10 13:51 24.40830 104.36788 33936 ft 445 kts 282°
2026-04-10 13:52 24.42256 104.30186 33977 ft 445 kts 282°
2026-04-10 13:52 24.43680 104.23577 33972 ft 445 kts 282°
2026-04-10 13:53 24.45091 104.17012 34006 ft 445 kts 282°
2026-04-10 13:53 24.46509 104.10411 33997 ft 444 kts 282°
2026-04-10 13:54 24.47922 104.03818 34041 ft 443 kts 282°
2026-04-10 13:54 24.49327 103.97231 34036 ft 443 kts 282°
2026-04-10 13:55 24.50719 103.90697 34064 ft 442 kts 282°
2026-04-10 13:55 24.52118 103.84120 34067 ft 442 kts 282°
2026-04-10 13:56 24.53523 103.77546 34091 ft 442 kts 283°
2026-04-10 13:56 24.55546 103.71156 34081 ft 445 kts 292°
2026-04-10 13:57 24.58277 103.65060 34093 ft 445 kts 294°
2026-04-10 13:57 24.60990 103.59005 34102 ft 445 kts 294°
2026-04-10 13:58 24.63703 103.52900 34098 ft 445 kts 293°
2026-04-10 13:58 24.66407 103.46792 34130 ft 444 kts 293°
2026-04-10 13:59 24.69100 103.40696 34120 ft 443 kts 293°
2026-04-10 13:59 24.71765 103.34659 34118 ft 441 kts 293°
2026-04-10 14:00 24.74437 103.28599 34136 ft 440 kts 293°
2026-04-10 14:00 24.77098 103.22553 34134 ft 439 kts 293°
2026-04-10 14:01 24.79756 103.16506 34146 ft 439 kts 293°
2026-04-10 14:01 24.82394 103.10497 34155 ft 439 kts 293°
2026-04-10 14:02 24.85045 103.04448 34174 ft 439 kts 293°
2026-04-10 14:02 24.87695 102.98399 34182 ft 439 kts 293°
2026-04-10 14:03 24.90351 102.92337 34195 ft 440 kts 293°
2026-04-10 14:03 24.92987 102.86290 34199 ft 441 kts 293°
2026-04-10 14:04 24.95693 102.80199 34191 ft 443 kts 293°
2026-04-10 14:05 24.99762 102.71065 34190 ft 443 kts 293°
2026-04-10 14:05 25.02445 102.65013 34183 ft 442 kts 293°
2026-04-10 14:06 25.05135 102.58939 34188 ft 439 kts 293°
2026-04-10 14:06 25.06242 102.55840 34168 ft 432 kts 281°
2026-04-10 14:06 25.06533 102.52559 34184 ft 431 kts 269°
2026-04-10 14:07 25.05496 102.46042 34165 ft 437 kts 249°
2026-04-10 14:07 25.02643 102.40079 34175 ft 444 kts 245°
2026-04-10 14:08 24.99706 102.34103 34173 ft 447 kts 245°
2026-04-10 14:08 24.96782 102.28053 34156 ft 448 kts 246°
2026-04-10 14:09 24.93880 102.21990 34152 ft 447 kts 246°
2026-04-10 14:09 24.90987 102.15941 34138 ft 446 kts 246°
2026-04-10 14:10 24.88122 102.09958 34132 ft 444 kts 246°
2026-04-10 14:10 24.85242 102.03955 34136 ft 443 kts 245°
2026-04-10 14:11 24.82361 101.97959 34125 ft 443 kts 246°
2026-04-10 14:11 24.79477 101.91961 34130 ft 443 kts 246°
2026-04-10 14:12 24.76616 101.86021 34111 ft 442 kts 245°
2026-04-10 14:12 24.73737 101.80052 34110 ft 442 kts 245°
2026-04-10 14:13 24.70856 101.74082 34098 ft 442 kts 245°
2026-04-10 14:13 24.67975 101.68122 34102 ft 441 kts 245°
2026-04-10 14:14 24.65111 101.62203 34098 ft 442 kts 246°
2026-04-10 14:14 24.62221 101.56241 34100 ft 442 kts 246°
2026-04-10 14:15 24.59296 101.50291 34108 ft 442 kts 245°
2026-04-10 14:15 24.56370 101.44347 34074 ft 442 kts 245°
2026-04-10 14:16 24.53444 101.38433 34107 ft 446 kts 245°
2026-04-10 14:16 24.50474 101.32425 34087 ft 449 kts 245°
2026-04-10 14:17 24.47493 101.26396 34104 ft 450 kts 245°
2026-04-10 14:17 24.44503 101.20359 34096 ft 449 kts 245°
2026-04-10 14:18 24.41519 101.14341 34092 ft 449 kts 245°
2026-04-10 14:18 24.38554 101.08371 34091 ft 448 kts 245°
2026-04-10 14:19 24.35581 101.02391 34092 ft 446 kts 245°
2026-04-10 14:19 24.32614 100.96426 34085 ft 446 kts 245°
2026-04-10 14:20 24.29643 100.90463 34063 ft 445 kts 245°
2026-04-10 14:20 24.26694 100.84550 34077 ft 445 kts 245°
2026-04-10 14:21 24.23717 100.78590 34083 ft 447 kts 245°
2026-04-10 14:21 24.20715 100.72591 34079 ft 450 kts 245°
2026-04-10 14:22 24.17703 100.66574 34071 ft 451 kts 245°
2026-04-10 14:22 24.14680 100.60543 34111 ft 453 kts 245°
2026-04-10 14:22 24.13186 100.57564 34383 ft 453 kts 244°
2026-04-10 14:23 24.11671 100.54555 34800 ft 449 kts 244°
2026-04-10 14:23 24.10151 100.51571 35170 ft 448 kts 244°
2026-04-10 14:23 24.08628 100.48601 35507 ft 447 kts 244°
2026-04-10 14:23 24.07106 100.45637 35822 ft 447 kts 244°
2026-04-10 14:24 24.05579 100.42668 35991 ft 450 kts 244°
2026-04-10 14:24 24.02503 100.36684 36038 ft 452 kts 244°
2026-04-10 14:25 23.99457 100.30758 36056 ft 449 kts 244°
2026-04-10 14:25 23.96404 100.24828 36067 ft 445 kts 244°
2026-04-10 14:26 23.93370 100.18928 36069 ft 445 kts 244°
2026-04-10 14:26 23.90323 100.13016 36063 ft 447 kts 244°
2026-04-10 14:27 23.87269 100.07098 36046 ft 448 kts 244°
2026-04-10 14:27 23.84230 100.01217 36065 ft 447 kts 243°
2026-04-10 14:28 23.81160 99.95286 36040 ft 449 kts 244°
2026-04-10 14:28 23.78081 99.89342 36051 ft 451 kts 243°
2026-04-10 14:29 23.74986 99.83376 36024 ft 452 kts 243°
2026-04-10 14:29 23.71905 99.77441 36057 ft 453 kts 243°
2026-04-10 14:30 23.68795 99.71459 36045 ft 454 kts 243°
2026-04-10 14:30 23.65678 99.65471 36057 ft 454 kts 243°
2026-04-10 14:31 23.62578 99.59521 36061 ft 454 kts 243°
2026-04-10 14:31 23.59455 99.53534 36059 ft 454 kts 243°
2026-04-10 14:32 23.56328 99.47547 36049 ft 454 kts 243°
2026-04-10 14:32 23.53266 99.41542 36045 ft 452 kts 247°
2026-04-10 14:33 23.51018 99.35239 36055 ft 448 kts 254°
2026-04-10 14:33 23.49059 99.28786 36060 ft 449 kts 253°
2026-04-10 14:34 23.47065 99.22336 36025 ft 450 kts 253°
2026-04-10 14:34 23.45052 99.15868 36030 ft 451 kts 253°
2026-04-10 14:35 23.43032 99.09393 36042 ft 452 kts 253°
2026-04-10 14:35 23.41024 99.02964 36013 ft 451 kts 253°
2026-04-10 14:36 23.39006 98.96512 36038 ft 450 kts 253°
2026-04-10 14:36 23.36975 98.90058 35941 ft 451 kts 252°
2026-04-10 14:37 23.34836 98.83638 35932 ft 451 kts 252°
2026-04-10 14:37 23.32683 98.77282 35926 ft 451 kts 252°
2026-04-10 14:38 23.30525 98.70884 35954 ft 450 kts 252°
2026-04-10 14:38 23.28372 98.64489 35926 ft 450 kts 252°
2026-04-10 14:39 23.26225 98.58107 35949 ft 449 kts 252°
2026-04-10 14:39 23.24090 98.51771 35922 ft 449 kts 252°
2026-04-10 14:40 23.21940 98.45398 35963 ft 449 kts 252°
2026-04-10 14:40 23.19782 98.39014 35917 ft 450 kts 252°
2026-04-10 14:41 23.17623 98.32639 35931 ft 450 kts 252°
2026-04-10 14:41 23.15476 98.26308 35932 ft 450 kts 252°
2026-04-10 14:42 23.13307 98.19923 35953 ft 451 kts 252°
2026-04-10 14:42 23.11127 98.13510 35942 ft 453 kts 252°
2026-04-10 14:43 23.08937 98.07082 35952 ft 455 kts 252°
2026-04-10 14:43 23.06753 98.00677 35920 ft 456 kts 252°
2026-04-10 14:44 23.04547 97.94222 35941 ft 456 kts 252°
2026-04-10 14:44 23.02341 97.87773 35918 ft 455 kts 252°
2026-04-10 14:45 23.00137 97.81339 35908 ft 454 kts 252°
2026-04-10 14:45 22.98235 97.74874 35921 ft 451 kts 258°
2026-04-10 14:46 22.97295 97.68173 35925 ft 449 kts 265°
2026-04-10 14:46 22.96628 97.61440 35914 ft 449 kts 265°
2026-04-10 14:47 22.95943 97.54715 35935 ft 448 kts 264°
2026-04-10 14:47 22.95248 97.48035 35929 ft 449 kts 264°
2026-04-10 14:48 22.94540 97.41312 35926 ft 449 kts 264°
2026-04-10 14:48 22.93828 97.34587 35918 ft 449 kts 264°
2026-04-10 14:49 22.93118 97.27862 35910 ft 448 kts 265°
2026-04-10 14:49 22.92406 97.21190 35933 ft 449 kts 264°
2026-04-10 14:50 22.91685 97.14448 35932 ft 451 kts 264°
2026-04-10 14:50 22.90960 97.07682 35935 ft 452 kts 264°
2026-04-10 14:51 22.90229 97.00895 35932 ft 453 kts 264°
2026-04-10 14:51 22.89499 96.94156 35947 ft 453 kts 264°
2026-04-10 14:52 22.88760 96.87355 35935 ft 454 kts 264°
2026-04-10 14:52 22.88024 96.80565 35928 ft 453 kts 264°
2026-04-10 14:53 22.87275 96.73775 35927 ft 454 kts 264°
2026-04-10 14:53 22.86533 96.67033 35914 ft 454 kts 264°
2026-04-10 14:54 22.85784 96.60246 35923 ft 453 kts 264°
2026-04-10 14:54 22.85033 96.53458 35909 ft 453 kts 264°
2026-04-10 14:55 22.84280 96.46691 35925 ft 452 kts 264°
2026-04-10 14:55 22.83530 96.39972 35933 ft 452 kts 264°
2026-04-10 14:56 22.82770 96.33202 35901 ft 452 kts 264°
2026-04-10 14:56 22.82010 96.26439 35892 ft 453 kts 264°
2026-04-10 14:57 22.81244 96.19668 35882 ft 453 kts 264°
2026-04-10 14:57 22.80481 96.12937 35890 ft 453 kts 264°
2026-04-10 14:58 22.79709 96.06157 35863 ft 453 kts 264°
2026-04-10 14:58 22.78934 95.99378 35864 ft 453 kts 264°
2026-04-10 14:59 22.78157 95.92601 35857 ft 453 kts 264°
2026-04-10 14:59 22.77382 95.85870 35854 ft 453 kts 264°
2026-04-10 15:00 22.76600 95.79106 35853 ft 452 kts 264°
2026-04-10 15:00 22.75815 95.72344 35861 ft 452 kts 263°
2026-04-10 15:01 22.75028 95.65585 35863 ft 453 kts 263°
2026-04-10 15:01 22.74242 95.58861 35856 ft 453 kts 263°
2026-04-10 15:02 22.73448 95.52095 35858 ft 453 kts 263°
2026-04-10 15:02 22.72650 95.45323 35858 ft 453 kts 263°
2026-04-10 15:03 22.71849 95.38548 35853 ft 453 kts 263°
2026-04-10 15:03 22.71051 95.31819 35871 ft 453 kts 264°
2026-04-10 15:04 22.70245 95.25048 35862 ft 453 kts 264°
2026-04-10 15:04 22.69436 95.18282 35843 ft 453 kts 263°
2026-04-10 15:05 22.68219 95.08140 35858 ft 453 kts 263°
2026-04-10 15:05 22.67407 95.01412 35861 ft 454 kts 263°
2026-04-10 15:06 22.66586 94.94628 35874 ft 455 kts 263°
2026-04-10 15:06 22.65762 94.87843 35859 ft 455 kts 264°
2026-04-10 15:07 22.64936 94.81065 35865 ft 454 kts 264°
2026-04-10 15:07 22.64113 94.74338 35869 ft 453 kts 263°
2026-04-10 15:08 22.63283 94.67578 35879 ft 452 kts 263°
2026-04-10 15:08 22.62452 94.60833 35872 ft 452 kts 263°
2026-04-10 15:09 22.61620 94.54102 35894 ft 451 kts 264°
2026-04-10 15:09 22.60786 94.47380 35894 ft 450 kts 264°
2026-04-10 15:10 22.59956 94.40715 35889 ft 449 kts 264°
2026-04-10 15:10 22.59122 94.34016 35887 ft 449 kts 264°
2026-04-10 15:11 22.58284 94.27324 35905 ft 449 kts 264°
2026-04-10 15:11 22.57442 94.20668 35913 ft 450 kts 263°
2026-04-10 15:12 22.56597 94.13963 35910 ft 450 kts 263°
2026-04-10 15:12 22.55748 94.07251 35924 ft 450 kts 263°
2026-04-10 15:13 22.54892 94.00513 35933 ft 453 kts 263°
2026-04-10 15:13 22.54040 93.93829 35961 ft 451 kts 263°
2026-04-10 15:14 22.53181 93.87121 35949 ft 449 kts 263°
2026-04-10 15:14 22.52325 93.80445 35981 ft 448 kts 263°
2026-04-10 15:15 22.51464 93.73769 35978 ft 449 kts 263°
2026-04-10 15:15 22.50599 93.67076 35982 ft 450 kts 263°
2026-04-10 15:16 22.49734 93.60392 35991 ft 453 kts 263°
2026-04-10 15:16 22.48855 93.53633 35988 ft 455 kts 263°
2026-04-10 15:17 22.47969 93.46850 36007 ft 456 kts 263°
2026-04-10 15:17 22.47079 93.40046 36007 ft 458 kts 263°
2026-04-10 15:18 22.46189 93.33281 35992 ft 457 kts 263°
2026-04-10 15:18 22.45294 93.26491 36007 ft 456 kts 263°
2026-04-10 15:19 22.44397 93.19697 35999 ft 456 kts 263°
2026-04-10 15:19 22.43502 93.12955 35992 ft 456 kts 263°
2026-04-10 15:20 22.42600 93.06184 35981 ft 455 kts 263°
2026-04-10 15:20 22.41696 92.99415 35975 ft 455 kts 263°
2026-04-10 15:21 22.40790 92.92638 35973 ft 456 kts 263°
2026-04-10 15:21 22.39878 92.85859 35969 ft 456 kts 263°
2026-04-10 15:22 22.38968 92.79106 35962 ft 457 kts 263°
2026-04-10 15:22 22.38049 92.72303 35946 ft 458 kts 263°
2026-04-10 15:23 22.37127 92.65491 35953 ft 458 kts 263°
2026-04-10 15:23 22.36204 92.58682 35939 ft 458 kts 263°
2026-04-10 15:24 22.35279 92.51874 35938 ft 458 kts 263°
2026-04-10 15:24 22.34357 92.45121 35936 ft 458 kts 263°
2026-04-10 15:25 22.33428 92.38326 35927 ft 457 kts 263°
2026-04-10 15:25 22.32496 92.31533 35940 ft 457 kts 263°
2026-04-10 15:26 22.31562 92.24742 35921 ft 457 kts 263°
2026-04-10 15:26 22.30642 92.17997 35931 ft 457 kts 263°
2026-04-10 15:27 22.29716 92.11214 35917 ft 457 kts 263°
2026-04-10 15:27 22.28786 92.04429 35922 ft 457 kts 263°
2026-04-10 15:28 22.27852 91.97642 35916 ft 457 kts 263°
2026-04-10 15:28 22.26916 91.90855 35920 ft 457 kts 263°
2026-04-10 15:29 22.26150 91.84102 35939 ft 456 kts 269°
2026-04-10 15:29 22.26364 91.77279 35937 ft 455 kts 277°
2026-04-10 15:30 22.27180 91.70511 35936 ft 455 kts 277°
2026-04-10 15:30 22.27986 91.63733 35936 ft 455 kts 277°
2026-04-10 15:31 22.28760 91.56998 35930 ft 455 kts 277°
2026-04-10 15:31 22.29531 91.50212 35932 ft 455 kts 277°
2026-04-10 15:32 22.30298 91.43432 35923 ft 455 kts 277°
2026-04-10 15:32 22.31068 91.36651 35929 ft 454 kts 277°
2026-04-10 15:33 22.31892 91.29939 35925 ft 454 kts 278°
2026-04-10 15:33 22.32741 91.23191 35925 ft 453 kts 278°
2026-04-10 15:34 22.33582 91.16442 35931 ft 453 kts 277°
2026-04-10 15:34 22.34414 91.09695 35931 ft 453 kts 277°
2026-04-10 15:35 22.35235 91.02993 35930 ft 453 kts 277°
2026-04-10 15:35 22.36059 90.96244 35931 ft 453 kts 277°
2026-04-10 15:36 22.36881 90.89488 35935 ft 454 kts 277°
2026-04-10 15:36 22.37700 90.82728 35936 ft 454 kts 277°
2026-04-10 15:37 22.38518 90.75962 35931 ft 454 kts 277°
2026-04-10 15:37 22.39328 90.69236 35934 ft 454 kts 277°
2026-04-10 15:38 22.40141 90.62458 35929 ft 455 kts 277°
2026-04-10 15:38 22.40950 90.55684 35935 ft 455 kts 277°
2026-04-10 15:39 22.41753 90.48945 35931 ft 455 kts 277°
2026-04-10 15:39 22.42558 90.42167 35933 ft 455 kts 277°
2026-04-10 15:40 22.43360 90.35380 35930 ft 455 kts 277°
2026-04-10 15:40 22.44159 90.28600 35928 ft 455 kts 277°
2026-04-10 15:41 22.44955 90.21817 35932 ft 455 kts 277°
2026-04-10 15:41 22.45743 90.15082 35940 ft 454 kts 277°
2026-04-10 15:42 22.46532 90.08311 35934 ft 453 kts 277°
2026-04-10 15:42 22.47316 90.01555 35929 ft 452 kts 277°
2026-04-10 15:43 22.48095 89.94821 35929 ft 451 kts 277°
2026-04-10 15:43 22.48865 89.88142 35930 ft 450 kts 277°
2026-04-10 15:44 22.49636 89.81428 35934 ft 450 kts 277°
2026-04-10 15:44 22.50404 89.74712 35935 ft 450 kts 277°
2026-04-10 15:45 22.51169 89.67994 35929 ft 450 kts 277°
2026-04-10 15:45 22.51928 89.61315 35930 ft 451 kts 277°
2026-04-10 15:46 22.52689 89.54581 35932 ft 451 kts 277°
2026-04-10 15:46 22.53449 89.47839 35932 ft 452 kts 277°
2026-04-10 15:47 22.54206 89.41093 35928 ft 452 kts 277°
2026-04-10 15:47 22.54956 89.34383 35926 ft 452 kts 277°
2026-04-10 15:48 22.55709 89.27624 35929 ft 453 kts 277°
2026-04-10 15:48 22.56459 89.20864 35929 ft 452 kts 276°
2026-04-10 15:49 22.57206 89.14107 35928 ft 452 kts 276°
2026-04-10 15:49 22.57945 89.07396 35928 ft 452 kts 276°
2026-04-10 15:50 22.58685 89.00648 35925 ft 452 kts 276°
2026-04-10 15:50 22.59437 88.93899 35925 ft 452 kts 278°
2026-04-10 15:51 22.60529 88.87211 35927 ft 451 kts 280°
2026-04-10 15:51 22.61688 88.80536 35925 ft 451 kts 280°
2026-04-10 15:52 22.62828 88.73861 35917 ft 451 kts 279°
2026-04-10 15:52 22.63764 88.68315 35917 ft 451 kts 279°
2026-04-10 15:53 22.64884 88.61639 35915 ft 450 kts 279°
2026-04-10 15:53 22.66182 88.53889 35912 ft 450 kts 279°
2026-04-10 15:54 22.67297 88.47221 35916 ft 450 kts 279°
2026-04-10 15:54 22.67970 88.41599 35917 ft 449 kts 274°
2026-04-10 15:55 22.68393 88.34855 35916 ft 449 kts 274°
2026-04-10 15:55 22.68816 88.28113 35913 ft 449 kts 274°
2026-04-10 15:56 22.69250 88.21373 35918 ft 449 kts 274°
2026-04-10 15:56 22.69689 88.14631 35917 ft 449 kts 274°
2026-04-10 15:57 22.70127 88.07896 35915 ft 448 kts 274°
2026-04-10 15:57 22.70561 88.01158 35909 ft 448 kts 274°
2026-04-10 15:58 22.70992 87.94424 35914 ft 448 kts 274°
2026-04-10 15:58 22.71420 87.87692 35913 ft 448 kts 274°
2026-04-10 15:59 22.71845 87.80959 35912 ft 448 kts 274°
2026-04-10 15:59 22.72268 87.74227 35913 ft 448 kts 274°
2026-04-10 16:00 22.72688 87.67493 35906 ft 448 kts 273°
2026-04-10 16:00 22.73104 87.60766 35913 ft 448 kts 273°
2026-04-10 16:01 22.73514 87.54080 35908 ft 448 kts 273°
2026-04-10 16:01 22.73926 87.47344 35906 ft 448 kts 273°
2026-04-10 16:02 22.74334 87.40610 35907 ft 448 kts 273°
2026-04-10 16:02 22.74739 87.33871 35909 ft 448 kts 273°
2026-04-10 16:03 22.75143 87.27127 35909 ft 449 kts 273°
2026-04-10 16:03 22.75542 87.20386 35910 ft 449 kts 273°
2026-04-10 16:04 22.75940 87.13640 35916 ft 448 kts 273°
2026-04-10 16:04 22.76334 87.06904 35917 ft 448 kts 273°
2026-04-10 16:05 22.76725 87.00173 35917 ft 447 kts 273°
2026-04-10 16:05 22.77113 86.93450 35934 ft 447 kts 273°
2026-04-10 16:06 22.77496 86.86742 35929 ft 446 kts 273°
2026-04-10 16:06 22.77877 86.80044 35929 ft 445 kts 273°
2026-04-10 16:07 22.78255 86.73352 35942 ft 445 kts 273°
2026-04-10 16:07 22.78629 86.66669 35944 ft 444 kts 273°
2026-04-10 16:08 22.79000 86.59981 35954 ft 445 kts 273°
2026-04-10 16:08 22.79369 86.53294 35961 ft 445 kts 273°
2026-04-10 16:09 22.79735 86.46606 35963 ft 445 kts 273°
2026-04-10 16:09 22.80098 86.39918 35963 ft 444 kts 273°
2026-04-10 16:10 22.80458 86.33233 35973 ft 444 kts 273°
2026-04-10 16:10 22.80816 86.26548 35971 ft 444 kts 273°
2026-04-10 16:11 22.81170 86.19866 35975 ft 444 kts 273°
2026-04-10 16:11 22.81586 86.13193 35985 ft 444 kts 275°
2026-04-10 16:12 22.82162 86.06529 35986 ft 444 kts 275°
2026-04-10 16:13 22.83028 85.96537 35984 ft 444 kts 275°
2026-04-10 16:13 22.83580 85.89870 35988 ft 444 kts 275°
2026-04-10 16:14 22.84120 85.83247 35995 ft 444 kts 275°
2026-04-10 16:14 22.84661 85.76578 35996 ft 444 kts 275°
2026-04-10 16:15 22.85200 85.69901 36011 ft 444 kts 275°
2026-04-10 16:15 22.85737 85.63230 36014 ft 444 kts 274°
2026-04-10 16:16 22.86271 85.56555 36028 ft 444 kts 274°
2026-04-10 16:16 22.86802 85.49881 36024 ft 445 kts 274°
2026-04-10 16:17 22.87330 85.43201 36023 ft 444 kts 274°
2026-04-10 16:17 22.87856 85.36527 36031 ft 444 kts 274°
2026-04-10 16:18 22.88378 85.29858 36036 ft 444 kts 274°
2026-04-10 16:18 22.88898 85.23178 36034 ft 445 kts 274°
2026-04-10 16:19 22.89416 85.16496 36033 ft 445 kts 274°
2026-04-10 16:19 22.89931 85.09816 36031 ft 445 kts 274°
2026-04-10 16:20 22.90444 85.03132 36039 ft 445 kts 274°
2026-04-10 16:20 22.90955 84.96449 36039 ft 444 kts 274°
2026-04-10 16:21 22.91463 84.89772 36039 ft 444 kts 274°
2026-04-10 16:21 22.91967 84.83091 36038 ft 445 kts 274°
2026-04-10 16:22 22.92467 84.76448 36035 ft 445 kts 274°
2026-04-10 16:22 22.92967 84.69743 36034 ft 445 kts 274°
2026-04-10 16:23 22.93465 84.63047 36033 ft 445 kts 274°
2026-04-10 16:23 22.93959 84.56360 36035 ft 445 kts 274°
2026-04-10 16:24 22.94450 84.49671 36028 ft 445 kts 274°
2026-04-10 16:24 22.94939 84.42980 36033 ft 445 kts 274°
2026-04-10 16:25 22.95424 84.36290 36028 ft 445 kts 274°
2026-04-10 16:25 22.95904 84.29639 36032 ft 445 kts 274°
2026-04-10 16:26 22.96384 84.22949 36028 ft 445 kts 274°
2026-04-10 16:26 22.96862 84.16263 36022 ft 444 kts 274°
2026-04-10 16:27 22.97312 84.09581 36028 ft 444 kts 273°
2026-04-10 16:27 22.97673 84.02895 36024 ft 444 kts 272°
2026-04-10 16:28 22.98019 83.96212 36030 ft 444 kts 272°
2026-04-10 16:28 22.98371 83.89527 36019 ft 444 kts 273°
2026-04-10 16:29 22.98726 83.82843 36051 ft 443 kts 272°
2026-04-10 16:29 22.99080 83.76167 36038 ft 443 kts 273°
2026-04-10 16:30 22.99431 83.69506 36007 ft 441 kts 272°
2026-04-10 16:30 22.99777 83.62875 36012 ft 440 kts 272°
2026-04-10 16:31 23.00118 83.56256 36027 ft 439 kts 272°
2026-04-10 16:31 23.00458 83.49642 36006 ft 439 kts 272°
2026-04-10 16:32 23.00795 83.43029 36003 ft 439 kts 272°
2026-04-10 16:32 23.01129 83.36404 36010 ft 440 kts 272°
2026-04-10 16:33 23.01461 83.29768 36000 ft 441 kts 272°
2026-04-10 16:33 23.01791 83.23120 35996 ft 441 kts 272°
2026-04-10 16:34 23.02118 83.16463 35993 ft 442 kts 272°
2026-04-10 16:34 23.02443 83.09802 35978 ft 442 kts 272°
2026-04-10 16:35 23.02766 83.03123 35982 ft 443 kts 272°
2026-04-10 16:35 23.03086 82.96443 35984 ft 443 kts 272°
2026-04-10 16:36 23.03404 82.89755 35981 ft 444 kts 272°
2026-04-10 16:36 23.03719 82.83069 35977 ft 444 kts 272°
2026-04-10 16:37 23.04031 82.76381 35970 ft 444 kts 272°
2026-04-10 16:37 23.04340 82.69691 35978 ft 443 kts 272°
2026-04-10 16:38 23.04647 82.63010 35971 ft 443 kts 272°
2026-04-10 16:38 23.04950 82.56336 35972 ft 443 kts 272°
2026-04-10 16:39 23.05199 82.50790 35976 ft 442 kts 272°
2026-04-10 16:39 23.05497 82.44118 35984 ft 442 kts 272°
2026-04-10 16:40 23.05792 82.37445 35986 ft 442 kts 272°
2026-04-10 16:40 23.06084 82.30779 35980 ft 442 kts 272°
2026-04-10 16:41 23.06373 82.24120 35978 ft 441 kts 272°
2026-04-10 16:41 23.06659 82.17471 35983 ft 441 kts 272°
2026-04-10 16:42 23.07014 82.10835 35981 ft 440 kts 273°
2026-04-10 16:42 23.07447 82.04200 35981 ft 440 kts 273°
2026-04-10 16:43 23.07875 81.97570 35979 ft 440 kts 273°
2026-04-10 16:43 23.08289 81.90934 35986 ft 440 kts 273°
2026-04-10 16:44 23.08695 81.84296 35986 ft 441 kts 273°
2026-04-10 16:44 23.09097 81.77655 35990 ft 441 kts 273°
2026-04-10 16:45 23.09494 81.71057 35993 ft 441 kts 273°
2026-04-10 16:45 23.09892 81.64412 35994 ft 441 kts 273°
2026-04-10 16:46 23.10287 81.57764 35998 ft 441 kts 273°
2026-04-10 16:46 23.10679 81.51120 35999 ft 441 kts 273°
2026-04-10 16:47 23.11068 81.44480 36007 ft 441 kts 273°
2026-04-10 16:47 23.11454 81.37839 36006 ft 440 kts 273°
2026-04-10 16:48 23.11837 81.31205 35991 ft 440 kts 273°
2026-04-10 16:48 23.12217 81.24575 36008 ft 440 kts 273°
2026-04-10 16:49 23.12594 81.17944 35999 ft 440 kts 273°
2026-04-10 16:49 23.12969 81.11310 36006 ft 440 kts 273°
2026-04-10 16:50 23.13341 81.04681 36003 ft 440 kts 273°
2026-04-10 16:50 23.13710 80.98046 36007 ft 440 kts 273°
2026-04-10 16:51 23.14076 80.91413 36005 ft 440 kts 273°
2026-04-10 16:51 23.14439 80.84777 36008 ft 440 kts 273°
2026-04-10 16:52 23.14801 80.78135 36003 ft 440 kts 273°
2026-04-10 16:52 23.15162 80.71496 36008 ft 440 kts 273°
2026-04-10 16:53 23.15523 80.64861 36006 ft 440 kts 273°
2026-04-10 16:53 23.15882 80.58236 35993 ft 439 kts 273°
2026-04-10 16:54 23.16236 80.51632 36006 ft 437 kts 272°
2026-04-10 16:54 23.16586 80.45044 35993 ft 436 kts 273°
2026-04-10 16:55 23.16932 80.38472 35995 ft 435 kts 272°
2026-04-10 16:55 23.17276 80.31907 35992 ft 435 kts 272°
2026-04-10 16:56 23.17617 80.25345 35988 ft 435 kts 272°
2026-04-10 16:56 23.17954 80.18783 35991 ft 435 kts 272°
2026-04-10 16:57 23.18288 80.12256 35993 ft 436 kts 272°
2026-04-10 16:57 23.18621 80.05681 35982 ft 436 kts 272°
2026-04-10 16:58 23.18918 79.99098 35981 ft 436 kts 272°
2026-04-10 16:58 23.19198 79.92507 35982 ft 436 kts 272°
2026-04-10 16:59 23.19478 79.85917 35984 ft 436 kts 272°
2026-04-10 16:59 23.19759 79.79328 35978 ft 436 kts 272°
2026-04-10 17:00 23.20037 79.72744 35983 ft 436 kts 272°
2026-04-10 17:00 23.20313 79.66154 35990 ft 436 kts 272°
2026-04-10 17:01 23.20587 79.59565 35991 ft 436 kts 272°
2026-04-10 17:01 23.20815 79.52974 35996 ft 436 kts 271°
2026-04-10 17:02 23.20927 79.46374 35989 ft 437 kts 270°
2026-04-10 17:02 23.21029 79.39777 35999 ft 437 kts 270°
2026-04-10 17:03 23.21142 79.33175 36003 ft 437 kts 270°
2026-04-10 17:03 23.21259 79.26572 35991 ft 437 kts 270°
2026-04-10 17:04 23.21375 79.19965 36000 ft 437 kts 270°
2026-04-10 17:04 23.21487 79.13362 36000 ft 437 kts 270°
2026-04-10 17:05 23.21596 79.06756 36003 ft 437 kts 270°
2026-04-10 17:05 23.21703 79.00151 35999 ft 437 kts 270°
2026-04-10 17:06 23.21806 78.93580 36002 ft 438 kts 270°
2026-04-10 17:06 23.21908 78.86955 35998 ft 439 kts 270°
2026-04-10 17:07 23.22007 78.80321 36004 ft 439 kts 270°
2026-04-10 17:07 23.22104 78.73681 36003 ft 439 kts 270°
2026-04-10 17:08 23.22358 78.67046 36007 ft 440 kts 272°
2026-04-10 17:08 23.22717 78.60412 36005 ft 440 kts 272°
2026-04-10 17:09 23.23060 78.53777 36003 ft 440 kts 272°
2026-04-10 17:09 23.23381 78.47140 36005 ft 439 kts 272°
2026-04-10 17:10 23.23691 78.40506 36011 ft 439 kts 272°
2026-04-10 17:10 23.23997 78.33876 36009 ft 439 kts 272°
2026-04-10 17:11 23.24301 78.27248 36012 ft 439 kts 272°
2026-04-10 17:11 23.24603 78.20620 36009 ft 439 kts 272°
2026-04-10 17:12 23.24902 78.13994 36022 ft 439 kts 272°
2026-04-10 17:12 23.25197 78.07367 36007 ft 439 kts 272°
2026-04-10 17:13 23.25491 78.00740 36015 ft 439 kts 272°
2026-04-10 17:13 23.25781 77.94110 36034 ft 439 kts 272°
2026-04-10 17:14 23.26069 77.87478 36015 ft 439 kts 272°
2026-04-10 17:14 23.26354 77.80844 36032 ft 439 kts 272°
2026-04-10 17:15 23.26636 77.74215 36035 ft 439 kts 272°
2026-04-10 17:15 23.26915 77.67589 36027 ft 438 kts 272°
2026-04-10 17:16 23.27190 77.61018 36034 ft 437 kts 272°
2026-04-10 17:16 23.27462 77.54414 36031 ft 437 kts 272°
2026-04-10 17:17 23.27732 77.47818 36035 ft 436 kts 272°
2026-04-10 17:17 23.27999 77.41221 36037 ft 437 kts 272°
2026-04-10 17:18 23.28253 77.34624 36043 ft 437 kts 270°
2026-04-10 17:18 23.27944 77.28035 36057 ft 437 kts 265°
2026-04-10 17:19 23.27452 77.21443 36034 ft 438 kts 265°
2026-04-10 17:19 23.26972 77.14832 36038 ft 439 kts 265°
2026-04-10 17:20 23.26499 77.08213 36046 ft 439 kts 265°
2026-04-10 17:20 23.26028 77.01627 36043 ft 440 kts 265°
2026-04-10 17:21 23.25311 76.91670 36047 ft 440 kts 265°
2026-04-10 17:21 23.24829 76.85031 36056 ft 440 kts 265°
2026-04-10 17:22 23.24344 76.78390 36049 ft 440 kts 265°
2026-04-10 17:22 23.23857 76.71760 36049 ft 440 kts 265°
2026-04-10 17:23 23.23367 76.65127 36050 ft 440 kts 265°
2026-04-10 17:23 23.22875 76.58505 36054 ft 440 kts 265°
2026-04-10 17:24 23.22380 76.51882 36054 ft 439 kts 265°
2026-04-10 17:24 23.21883 76.45263 36058 ft 439 kts 265°
2026-04-10 17:25 23.21382 76.38638 36053 ft 440 kts 265°
2026-04-10 17:25 23.20879 76.32018 36062 ft 440 kts 265°
2026-04-10 17:26 23.20373 76.25388 36063 ft 440 kts 265°
2026-04-10 17:26 23.19863 76.18758 36070 ft 440 kts 265°
2026-04-10 17:27 23.19351 76.12125 36055 ft 441 kts 265°
2026-04-10 17:27 23.18836 76.05485 36065 ft 441 kts 265°
2026-04-10 17:28 23.18366 75.98887 36066 ft 441 kts 268°
2026-04-10 17:28 23.18274 75.92217 36071 ft 442 kts 269°
2026-04-10 17:29 23.18218 75.85538 36068 ft 442 kts 269°
2026-04-10 17:29 23.18150 75.78855 36069 ft 442 kts 269°
2026-04-10 17:30 23.18083 75.73301 36072 ft 442 kts 269°
2026-04-10 17:30 23.17996 75.66572 36078 ft 442 kts 269°
2026-04-10 17:31 23.17906 75.59894 36069 ft 442 kts 269°
2026-04-10 17:31 23.17815 75.53257 36069 ft 442 kts 269°
2026-04-10 17:32 23.17720 75.46575 36071 ft 442 kts 269°
2026-04-10 17:32 23.17622 75.39897 36064 ft 442 kts 268°
2026-04-10 17:33 23.17522 75.33219 36064 ft 442 kts 268°
2026-04-10 17:33 23.17418 75.26533 36065 ft 442 kts 268°
2026-04-10 17:34 23.17312 75.19850 36065 ft 443 kts 268°
2026-04-10 17:34 23.17203 75.13151 36095 ft 446 kts 268°
2026-04-10 17:35 23.17146 75.09779 36372 ft 446 kts 268°
2026-04-10 17:35 23.17090 75.06414 36784 ft 444 kts 268°
2026-04-10 17:35 23.17034 75.03115 37192 ft 441 kts 268°
2026-04-10 17:35 23.16977 74.99789 37593 ft 439 kts 268°
2026-04-10 17:36 23.16919 74.96479 37987 ft 438 kts 268°
2026-04-10 17:36 23.16859 74.93114 38023 ft 443 kts 268°
2026-04-10 17:36 23.16739 74.86459 38039 ft 442 kts 268°
2026-04-10 17:37 23.16618 74.79837 38035 ft 436 kts 268°
2026-04-10 17:37 23.16493 74.73254 38030 ft 435 kts 268°
2026-04-10 17:38 23.16367 74.66689 38030 ft 434 kts 268°
2026-04-10 17:38 23.16238 74.60128 38020 ft 435 kts 268°
2026-04-10 17:39 23.16106 74.53551 38014 ft 436 kts 268°
2026-04-10 17:39 23.15971 74.46960 38011 ft 437 kts 268°
2026-04-10 17:40 23.15833 74.40353 38007 ft 438 kts 268°
2026-04-10 17:40 23.15691 74.33733 37995 ft 439 kts 267°
2026-04-10 17:41 23.15425 74.27103 37998 ft 439 kts 266°
2026-04-10 17:41 23.15089 74.20475 37987 ft 440 kts 266°
2026-04-10 17:42 23.14758 74.13836 37985 ft 440 kts 266°
2026-04-10 17:42 23.14440 74.07238 37978 ft 440 kts 266°
2026-04-10 17:43 23.14121 74.00594 37971 ft 440 kts 266°
2026-04-10 17:43 23.13801 73.93949 37977 ft 440 kts 266°
2026-04-10 17:44 23.13478 73.87308 37964 ft 440 kts 266°
2026-04-10 17:44 23.13152 73.80668 37967 ft 440 kts 266°
2026-04-10 17:45 23.12822 73.74028 37951 ft 440 kts 266°
2026-04-10 17:45 23.12491 73.67391 37952 ft 440 kts 266°
2026-04-10 17:46 23.12156 73.60756 37945 ft 440 kts 266°
2026-04-10 17:46 23.11819 73.54124 37944 ft 440 kts 266°
2026-04-10 17:47 23.11479 73.47493 37940 ft 440 kts 266°
2026-04-10 17:47 23.11136 73.40861 37935 ft 440 kts 266°
2026-04-10 17:48 23.10791 73.34234 37946 ft 440 kts 266°
2026-04-10 17:48 23.10443 73.27605 37936 ft 440 kts 266°
2026-04-10 17:49 23.10092 73.20971 37938 ft 440 kts 266°
2026-04-10 17:49 23.09738 73.14331 37938 ft 440 kts 266°
2026-04-10 17:50 23.09380 73.07690 37935 ft 441 kts 266°
2026-04-10 17:50 23.09020 73.01044 37936 ft 441 kts 266°
2026-04-10 17:51 23.08657 72.94391 37927 ft 441 kts 266°
2026-04-10 17:51 23.08291 72.87733 37934 ft 442 kts 266°
2026-04-10 17:52 23.07921 72.81076 37936 ft 442 kts 266°
2026-04-10 17:52 23.07549 72.74411 37940 ft 442 kts 266°
2026-04-10 17:53 23.07177 72.67785 37942 ft 443 kts 265°
2026-04-10 17:53 23.06693 72.61124 37935 ft 442 kts 261°
2026-04-10 17:54 23.05765 72.54523 37940 ft 442 kts 261°
2026-04-10 17:54 23.04814 72.47923 37940 ft 443 kts 261°
2026-04-10 17:55 23.03874 72.41318 37934 ft 443 kts 261°
2026-04-10 17:55 23.02939 72.34705 37934 ft 443 kts 261°
2026-04-10 17:56 23.02004 72.28092 37934 ft 443 kts 261°
2026-04-10 17:56 23.01065 72.21479 37939 ft 443 kts 261°
2026-04-10 17:57 23.00124 72.14866 37930 ft 443 kts 261°
2026-04-10 17:57 22.99181 72.08261 37937 ft 443 kts 261°
2026-04-10 17:58 22.98236 72.01659 37939 ft 442 kts 261°
2026-04-10 17:58 22.97288 71.95064 37942 ft 442 kts 261°
2026-04-10 17:59 22.96339 71.88474 37938 ft 442 kts 261°
2026-04-10 17:59 22.95387 71.81886 37949 ft 442 kts 261°
2026-04-10 18:00 22.94432 71.75302 37952 ft 442 kts 261°
2026-04-10 18:00 22.93475 71.68717 37956 ft 442 kts 261°
2026-04-10 18:01 22.92515 71.62133 37953 ft 442 kts 261°
2026-04-10 18:01 22.91558 71.55590 37957 ft 442 kts 261°
2026-04-10 18:02 22.90591 71.48997 37956 ft 443 kts 261°
2026-04-10 18:02 22.89621 71.42402 37953 ft 443 kts 261°
2026-04-10 18:03 22.88646 71.35799 37955 ft 443 kts 261°
2026-04-10 18:03 22.87669 71.29195 37955 ft 444 kts 261°
2026-04-10 18:04 22.86688 71.22584 37962 ft 444 kts 261°
2026-04-10 18:04 22.85704 71.15975 37958 ft 444 kts 261°
2026-04-10 18:05 22.84717 71.09364 37961 ft 444 kts 261°
2026-04-10 18:05 22.83728 71.02752 37967 ft 444 kts 261°
2026-04-10 18:06 22.82736 70.96144 37971 ft 444 kts 261°
2026-04-10 18:06 22.81741 70.89535 37967 ft 444 kts 261°
2026-04-10 18:07 22.80991 70.82898 37976 ft 444 kts 267°
2026-04-10 18:07 22.81197 70.76208 37969 ft 445 kts 273°
2026-04-10 18:08 22.81658 70.69525 37970 ft 445 kts 273°
2026-04-10 18:08 22.82102 70.62841 37968 ft 445 kts 273°
2026-04-10 18:09 22.82739 70.52807 37966 ft 445 kts 273°
2026-04-10 18:10 22.83156 70.46118 37990 ft 444 kts 272°
2026-04-10 18:10 22.83570 70.39436 37968 ft 443 kts 272°
2026-04-10 18:11 22.83981 70.32779 37964 ft 442 kts 272°
2026-04-10 18:11 22.84387 70.26142 37966 ft 441 kts 272°
2026-04-10 18:12 22.84789 70.19523 37959 ft 440 kts 272°
2026-04-10 18:12 22.85186 70.12952 37964 ft 439 kts 272°
2026-04-10 18:13 22.85582 70.06342 37965 ft 440 kts 272°
2026-04-10 18:13 22.85976 69.99722 37965 ft 440 kts 272°
2026-04-10 18:14 22.86368 69.93098 37968 ft 441 kts 272°
2026-04-10 18:14 22.86757 69.86459 37965 ft 441 kts 272°
2026-04-10 18:15 22.87145 69.79808 37966 ft 442 kts 272°
2026-04-10 18:15 22.87531 69.73145 37968 ft 443 kts 272°
2026-04-10 18:16 22.87928 69.66474 37973 ft 444 kts 272°
2026-04-10 18:16 22.88365 69.59791 37970 ft 445 kts 273°
2026-04-10 18:17 22.88805 69.53102 37965 ft 445 kts 272°
2026-04-10 18:17 22.89237 69.46407 37973 ft 445 kts 272°
2026-04-10 18:18 22.89664 69.39710 37973 ft 445 kts 272°
2026-04-10 18:18 22.90087 69.33008 37972 ft 445 kts 272°
2026-04-10 18:19 22.90505 69.26349 37972 ft 445 kts 272°
2026-04-10 18:19 22.90923 69.19653 37976 ft 445 kts 272°
2026-04-10 18:20 22.91338 69.12954 37977 ft 445 kts 272°
2026-04-10 18:20 22.91750 69.06262 37975 ft 445 kts 272°
2026-04-10 18:21 22.92093 69.00653 37972 ft 445 kts 272°
2026-04-10 18:21 22.92499 68.93963 37978 ft 444 kts 272°
2026-04-10 18:22 22.92903 68.87277 37986 ft 444 kts 272°
2026-04-10 18:22 22.93302 68.80601 37982 ft 443 kts 272°
2026-04-10 18:23 22.93696 68.73989 37975 ft 441 kts 272°
2026-04-10 18:23 22.94090 68.67309 37978 ft 440 kts 272°
2026-04-10 18:24 22.94476 68.60727 37979 ft 440 kts 272°
2026-04-10 18:24 22.94862 68.54112 37983 ft 439 kts 272°
2026-04-10 18:25 22.95244 68.47492 37984 ft 439 kts 272°
2026-04-10 18:25 22.95625 68.40873 37985 ft 440 kts 272°
2026-04-10 18:26 22.95847 68.34248 37986 ft 439 kts 269°
2026-04-10 18:26 22.95839 68.27618 37981 ft 440 kts 268°
2026-04-10 18:27 22.95821 68.20980 37985 ft 440 kts 268°
2026-04-10 18:27 22.95818 68.14335 37984 ft 441 kts 268°
2026-04-10 18:28 22.95818 68.07682 37984 ft 441 kts 268°
2026-04-10 18:28 22.95815 68.01034 37983 ft 441 kts 268°
2026-04-10 18:29 22.95810 67.94379 37990 ft 441 kts 268°
2026-04-10 18:29 22.95801 67.87725 37985 ft 441 kts 268°
2026-04-10 18:30 22.95807 67.81075 37992 ft 441 kts 269°
2026-04-10 18:30 22.95826 67.74423 37992 ft 441 kts 269°
2026-04-10 18:31 22.95842 67.67820 37989 ft 441 kts 269°
2026-04-10 18:31 22.95852 67.61174 37990 ft 440 kts 269°
2026-04-10 18:32 22.95859 67.54530 37991 ft 440 kts 268°
2026-04-10 18:32 22.95863 67.47890 37991 ft 440 kts 268°
2026-04-10 18:33 22.95864 67.41248 37989 ft 440 kts 268°
2026-04-10 18:33 22.95862 67.34615 37992 ft 440 kts 268°
2026-04-10 18:34 22.95858 67.27979 37997 ft 440 kts 268°
2026-04-10 18:34 22.95851 67.21345 37998 ft 440 kts 268°
2026-04-10 18:35 22.95841 67.14712 37994 ft 440 kts 268°
2026-04-10 18:35 22.95828 67.08081 37997 ft 439 kts 268°
2026-04-10 18:36 22.95814 67.01451 37998 ft 439 kts 268°
2026-04-10 18:36 22.95799 66.94840 37995 ft 438 kts 268°
2026-04-10 18:37 22.95834 66.88247 37993 ft 436 kts 269°
2026-04-10 18:37 22.95883 66.81667 37998 ft 435 kts 268°
2026-04-10 18:38 22.95925 66.75104 38002 ft 435 kts 268°
2026-04-10 18:38 22.95960 66.68542 38003 ft 435 kts 268°
2026-04-10 18:39 22.95991 66.61976 38003 ft 435 kts 268°
2026-04-10 18:39 22.96019 66.55406 38004 ft 436 kts 268°
2026-04-10 18:40 22.96045 66.48830 38002 ft 436 kts 268°
2026-04-10 18:40 22.96068 66.42248 38003 ft 436 kts 268°
2026-04-10 18:41 22.96088 66.35665 38003 ft 437 kts 268°
2026-04-10 18:41 22.96106 66.29079 38002 ft 437 kts 268°
2026-04-10 18:42 22.96121 66.22489 38008 ft 437 kts 268°
2026-04-10 18:42 22.96133 66.15902 38001 ft 437 kts 268°
2026-04-10 18:43 22.96142 66.09316 37999 ft 436 kts 268°
2026-04-10 18:43 22.96149 66.02781 38003 ft 436 kts 268°
2026-04-10 18:44 22.96153 65.96209 38002 ft 436 kts 268°
2026-04-10 18:44 22.96154 65.89640 38004 ft 435 kts 268°
2026-04-10 18:45 22.96153 65.83074 38007 ft 435 kts 268°
2026-04-10 18:45 22.96149 65.76512 38004 ft 435 kts 268°
2026-04-10 18:46 22.96142 65.69950 38008 ft 435 kts 268°
2026-04-10 18:46 22.96132 65.63396 38008 ft 435 kts 268°
2026-04-10 18:47 22.96120 65.56836 38011 ft 435 kts 268°
2026-04-10 18:47 22.96106 65.50272 38013 ft 435 kts 268°
2026-04-10 18:48 22.96088 65.43707 38013 ft 435 kts 268°
2026-04-10 18:48 22.96067 65.37141 38014 ft 435 kts 268°
2026-04-10 18:49 22.96044 65.30571 38016 ft 435 kts 268°
2026-04-10 18:49 22.96019 65.24002 38017 ft 435 kts 268°
2026-04-10 18:50 22.95990 65.17434 38029 ft 435 kts 268°
2026-04-10 18:50 22.95959 65.10867 38029 ft 435 kts 268°
2026-04-10 18:51 22.95926 65.04315 38016 ft 434 kts 267°
2026-04-10 18:51 22.95890 64.97785 38029 ft 432 kts 268°
2026-04-10 18:52 22.95851 64.91275 38024 ft 430 kts 268°
2026-04-10 18:52 22.95814 64.84798 38023 ft 429 kts 268°
2026-04-10 18:53 22.96286 64.78345 38021 ft 429 kts 274°
2026-04-10 18:53 22.96994 64.71916 38028 ft 429 kts 274°
2026-04-10 18:54 22.97686 64.65492 38028 ft 429 kts 274°
2026-04-10 18:54 22.98366 64.59060 38027 ft 429 kts 274°
2026-04-10 18:55 22.99041 64.52620 38028 ft 430 kts 274°
2026-04-10 18:55 22.99714 64.46175 38030 ft 430 kts 274°
2026-04-10 18:56 23.00386 64.39715 38030 ft 431 kts 274°
2026-04-10 18:56 23.01055 64.33254 38039 ft 431 kts 274°
2026-04-10 18:57 23.01722 64.26794 38035 ft 431 kts 274°
2026-04-10 18:57 23.02387 64.20331 38035 ft 430 kts 274°
2026-04-10 18:58 23.03048 64.13876 38034 ft 430 kts 274°
2026-04-10 18:58 23.03705 64.07431 38035 ft 430 kts 274°
2026-04-10 18:59 23.04358 64.00991 38038 ft 429 kts 274°
2026-04-10 18:59 23.05009 63.94559 38039 ft 428 kts 274°
2026-04-10 19:00 23.05656 63.88137 38041 ft 428 kts 274°
2026-04-10 19:00 23.06313 63.81723 38043 ft 427 kts 274°
2026-04-10 19:01 23.06987 63.75320 38046 ft 427 kts 274°
2026-04-10 19:01 23.07654 63.68960 38044 ft 427 kts 274°
2026-04-10 19:02 23.08321 63.62556 38044 ft 427 kts 274°
2026-04-10 19:02 23.08987 63.56109 38046 ft 427 kts 274°
2026-04-10 19:03 23.09643 63.49745 38047 ft 427 kts 274°
2026-04-10 19:03 23.10300 63.43338 38054 ft 427 kts 274°
2026-04-10 19:04 23.10955 63.36927 38053 ft 427 kts 274°
2026-04-10 19:04 23.11607 63.30516 38051 ft 427 kts 274°
2026-04-10 19:05 23.12257 63.24102 38052 ft 427 kts 274°
2026-04-10 19:05 23.12904 63.17695 38052 ft 427 kts 274°
2026-04-10 19:06 23.13548 63.11283 38045 ft 427 kts 274°
2026-04-10 19:06 23.14189 63.04875 38056 ft 427 kts 274°
2026-04-10 19:07 23.14725 62.99503 38054 ft 427 kts 274°
2026-04-10 19:07 23.15357 62.93137 38060 ft 427 kts 274°
2026-04-10 19:08 23.15990 62.86737 38052 ft 426 kts 274°
2026-04-10 19:08 23.16621 62.80342 38057 ft 425 kts 274°
2026-04-10 19:09 23.17247 62.73954 38056 ft 424 kts 274°
2026-04-10 19:09 23.17869 62.67585 38060 ft 424 kts 274°
2026-04-10 19:10 23.18489 62.61216 38056 ft 423 kts 274°
2026-04-10 19:10 23.19104 62.54857 38058 ft 423 kts 274°
2026-04-10 19:11 23.19718 62.48497 38050 ft 423 kts 274°
2026-04-10 19:11 23.20329 62.42137 38054 ft 423 kts 274°
2026-04-10 19:12 23.20937 62.35769 38050 ft 424 kts 274°
2026-04-10 19:12 23.21543 62.29404 38049 ft 424 kts 274°
2026-04-10 19:13 23.22148 62.23030 38053 ft 424 kts 274°
2026-04-10 19:13 23.22750 62.16648 38052 ft 424 kts 274°
2026-04-10 19:14 23.23350 62.10261 38053 ft 425 kts 274°
2026-04-10 19:14 23.23948 62.03870 38046 ft 425 kts 274°
2026-04-10 19:15 23.24544 61.97477 38053 ft 425 kts 274°
2026-04-10 19:15 23.25137 61.91082 38069 ft 425 kts 274°
2026-04-10 19:16 23.25727 61.84691 38056 ft 424 kts 274°
2026-04-10 19:16 23.26314 61.78310 38056 ft 423 kts 274°
2026-04-10 19:17 23.27186 61.68770 38055 ft 422 kts 274°
2026-04-10 19:17 23.27763 61.62417 38056 ft 422 kts 274°
2026-04-10 19:18 23.28337 61.56069 38053 ft 422 kts 273°
2026-04-10 19:18 23.28908 61.49725 38052 ft 422 kts 273°
2026-04-10 19:19 23.29477 61.43379 38056 ft 422 kts 273°
2026-04-10 19:19 23.30044 61.37025 38049 ft 422 kts 273°
2026-04-10 19:20 23.30609 61.30671 38051 ft 422 kts 273°
2026-04-10 19:20 23.31168 61.24351 38051 ft 423 kts 273°
2026-04-10 19:21 23.31729 61.17987 38051 ft 423 kts 274°
2026-04-10 19:21 23.32473 61.11634 38050 ft 424 kts 276°
2026-04-10 19:22 23.33317 61.05289 38049 ft 424 kts 276°
2026-04-10 19:22 23.34137 60.98938 38074 ft 424 kts 275°
2026-04-10 19:23 23.34934 60.92593 38044 ft 422 kts 275°
2026-04-10 19:23 23.35721 60.86269 38050 ft 421 kts 275°
2026-04-10 19:24 23.36504 60.79961 38045 ft 420 kts 275°
2026-04-10 19:24 23.37282 60.73672 38060 ft 419 kts 275°
2026-04-10 19:25 23.38095 60.67396 38048 ft 419 kts 278°
2026-04-10 19:25 23.39602 60.61242 38046 ft 423 kts 285°
2026-04-10 19:26 23.41774 60.55269 38047 ft 425 kts 287°
2026-04-10 19:26 23.43985 60.49304 38048 ft 425 kts 287°
2026-04-10 19:27 23.46182 60.43330 38042 ft 425 kts 287°
2026-04-10 19:27 23.48369 60.37345 38047 ft 425 kts 287°
2026-04-10 19:28 23.50553 60.31351 38054 ft 425 kts 287°
2026-04-10 19:28 23.52729 60.25368 38043 ft 425 kts 287°
2026-04-10 19:29 23.54900 60.19394 38041 ft 424 kts 287°
2026-04-10 19:29 23.57065 60.13425 38042 ft 423 kts 287°
2026-04-10 19:30 23.59223 60.07468 38043 ft 422 kts 287°
2026-04-10 19:30 23.61378 60.01512 38041 ft 422 kts 287°
2026-04-10 19:31 23.63515 59.95598 38038 ft 422 kts 287°
2026-04-10 19:31 23.65667 59.89634 38039 ft 422 kts 287°
2026-04-10 19:32 23.67815 59.83671 38044 ft 423 kts 286°
2026-04-10 19:32 23.69960 59.77708 38042 ft 422 kts 286°
2026-04-10 19:33 23.72099 59.71757 38044 ft 421 kts 286°
2026-04-10 19:33 23.74232 59.65813 38040 ft 420 kts 286°
2026-04-10 19:34 23.76357 59.59882 38031 ft 420 kts 286°
2026-04-10 19:34 23.78481 59.53944 38034 ft 420 kts 286°
2026-04-10 19:35 23.80604 59.48002 38041 ft 420 kts 286°
2026-04-10 19:35 23.82729 59.42045 38037 ft 421 kts 286°
2026-04-10 19:36 23.84844 59.36109 38050 ft 422 kts 286°
2026-04-10 19:36 23.86966 59.30148 38026 ft 421 kts 286°
2026-04-10 19:37 23.89078 59.24202 38028 ft 419 kts 286°
2026-04-10 19:37 23.91184 59.18265 38042 ft 418 kts 286°
2026-04-10 19:38 23.93271 59.12341 38039 ft 417 kts 285°
2026-04-10 19:38 23.95206 59.06374 38047 ft 416 kts 284°
2026-04-10 19:39 23.97099 59.00396 38031 ft 416 kts 284°
2026-04-10 19:39 23.99006 58.94414 38038 ft 417 kts 284°
2026-04-10 19:40 24.00926 58.88417 38045 ft 418 kts 284°
2026-04-10 19:40 24.02848 58.82416 38035 ft 418 kts 284°
2026-04-10 19:41 24.04765 58.76419 38035 ft 417 kts 284°
2026-04-10 19:41 24.06678 58.70425 38035 ft 417 kts 284°
2026-04-10 19:42 24.08584 58.64441 38034 ft 416 kts 284°
2026-04-10 19:42 24.10488 58.58459 38038 ft 416 kts 284°
2026-04-10 19:43 24.12383 58.52482 38038 ft 416 kts 284°
2026-04-10 19:43 24.14276 58.46500 38036 ft 416 kts 283°
2026-04-10 19:44 24.16164 58.40520 38060 ft 416 kts 283°
2026-04-10 19:44 24.18053 58.34531 38043 ft 416 kts 283°
2026-04-10 19:45 24.19926 58.28583 38037 ft 416 kts 283°
2026-04-10 19:45 24.21808 58.22598 38038 ft 415 kts 283°
2026-04-10 19:46 24.23686 58.16615 38033 ft 415 kts 283°
2026-04-10 19:46 24.25563 58.10629 38039 ft 415 kts 283°
2026-04-10 19:47 24.27423 58.04684 38036 ft 415 kts 283°
2026-04-10 19:47 24.29294 57.98695 38041 ft 415 kts 283°
2026-04-10 19:48 24.31164 57.92702 38037 ft 415 kts 283°
2026-04-10 19:48 24.33032 57.86705 38044 ft 416 kts 283°
2026-04-10 19:49 24.34886 57.80746 38040 ft 416 kts 283°
2026-04-10 19:49 24.36743 57.74768 37851 ft 412 kts 283°
2026-04-10 19:50 24.37667 57.71791 37495 ft 413 kts 283°
2026-04-10 19:50 24.38593 57.68796 37087 ft 416 kts 283°
2026-04-10 19:50 24.39524 57.65789 36762 ft 416 kts 283°
2026-04-10 19:50 24.40453 57.62789 36549 ft 414 kts 282°
2026-04-10 19:51 24.41373 57.59815 36378 ft 411 kts 282°
2026-04-10 19:51 24.42288 57.56856 36181 ft 409 kts 282°
2026-04-10 19:51 24.43199 57.53906 35955 ft 407 kts 282°
2026-04-10 19:51 24.44093 57.51006 35718 ft 406 kts 282°
2026-04-10 19:52 24.44998 57.48076 35376 ft 405 kts 282°
2026-04-10 19:52 24.45902 57.45151 34814 ft 403 kts 282°
2026-04-10 19:52 24.46799 57.42249 34292 ft 400 kts 282°
2026-04-10 19:52 24.47691 57.39360 33677 ft 399 kts 282°
2026-04-10 19:53 24.48575 57.36488 33093 ft 396 kts 282°
2026-04-10 19:53 24.49453 57.33637 32535 ft 393 kts 282°
2026-04-10 19:53 24.50324 57.30809 31988 ft 390 kts 282°
2026-04-10 19:53 24.51187 57.27999 31453 ft 387 kts 282°
2026-04-10 19:54 24.52032 57.25249 30945 ft 384 kts 282°
2026-04-10 19:54 24.52881 57.22481 30406 ft 382 kts 282°
2026-04-10 19:54 24.53726 57.19723 29826 ft 380 kts 283°
2026-04-10 19:54 24.54565 57.16986 29236 ft 377 kts 283°
2026-04-10 19:55 24.55397 57.14268 28693 ft 374 kts 283°
2026-04-10 19:55 24.56222 57.11572 28162 ft 371 kts 283°
2026-04-10 19:55 24.57040 57.08899 27649 ft 368 kts 283°
2026-04-10 19:55 24.57850 57.06246 27148 ft 365 kts 283°
2026-04-10 19:56 24.58644 57.03646 26662 ft 363 kts 283°
2026-04-10 19:56 24.59442 57.01028 26167 ft 360 kts 283°
2026-04-10 19:56 24.60236 56.98424 25691 ft 358 kts 283°
2026-04-10 19:56 24.61025 56.95833 25218 ft 357 kts 283°
2026-04-10 19:57 24.61811 56.93250 24760 ft 355 kts 283°
2026-04-10 19:57 24.62593 56.90680 24255 ft 355 kts 283°
2026-04-10 19:57 24.63373 56.88113 23785 ft 354 kts 284°
2026-04-10 19:57 24.64141 56.85548 23301 ft 351 kts 283°
2026-04-10 19:58 24.64824 56.83053 23064 ft 342 kts 282°
2026-04-10 19:58 24.65479 56.80561 22660 ft 338 kts 282°
2026-04-10 19:58 24.66121 56.78087 22182 ft 336 kts 282°
2026-04-10 19:58 24.66761 56.75618 21713 ft 336 kts 282°
2026-04-10 19:59 24.67408 56.73127 21447 ft 338 kts 282°
2026-04-10 19:59 24.68050 56.70670 21171 ft 331 kts 283°
2026-04-10 19:59 24.68684 56.68248 20718 ft 329 kts 283°
2026-04-10 19:59 24.69319 56.65824 20203 ft 331 kts 283°
2026-04-10 20:00 24.69948 56.63421 19826 ft 331 kts 284°
2026-04-10 20:00 24.70582 56.61003 19526 ft 327 kts 284°
2026-04-10 20:00 24.71210 56.58608 19181 ft 325 kts 284°
2026-04-10 20:00 24.71834 56.56226 18813 ft 324 kts 284°
2026-04-10 20:01 24.72456 56.53850 18460 ft 322 kts 284°
2026-04-10 20:01 24.73075 56.51483 18058 ft 321 kts 284°
2026-04-10 20:01 24.73690 56.49132 17681 ft 319 kts 284°
2026-04-10 20:01 24.74300 56.46797 17324 ft 316 kts 284°
2026-04-10 20:02 24.74906 56.44475 16925 ft 315 kts 284°
2026-04-10 20:02 24.75499 56.42198 16575 ft 313 kts 284°
2026-04-10 20:02 24.76098 56.39900 16228 ft 311 kts 284°
2026-04-10 20:02 24.76692 56.37621 15898 ft 309 kts 284°
2026-04-10 20:03 24.77281 56.35356 15562 ft 307 kts 284°
2026-04-10 20:03 24.77864 56.33118 15378 ft 299 kts 284°
2026-04-10 20:03 24.78425 56.30963 15247 ft 289 kts 284°
2026-04-10 20:03 24.78969 56.28872 14991 ft 283 kts 284°
2026-04-10 20:04 24.79513 56.26771 14557 ft 288 kts 284°
2026-04-10 20:04 24.80057 56.24672 14161 ft 292 kts 284°
2026-04-10 20:04 24.80616 56.22510 13748 ft 296 kts 284°
2026-04-10 20:04 24.81183 56.20302 13557 ft 302 kts 284°
2026-04-10 20:05 24.81753 56.18096 13330 ft 298 kts 284°
2026-04-10 20:05 24.82321 56.15913 13029 ft 296 kts 284°
2026-04-10 20:05 24.82885 56.13738 12685 ft 295 kts 284°
2026-04-10 20:05 24.83448 56.11562 12340 ft 295 kts 284°
2026-04-10 20:06 24.84007 56.09403 12178 ft 289 kts 284°
2026-04-10 20:06 24.84538 56.07352 12007 ft 265 kts 284°
2026-04-10 20:06 24.85031 56.05449 11690 ft 255 kts 283°
2026-04-10 20:06 24.85596 56.03661 11363 ft 249 kts 294°
2026-04-10 20:07 24.87562 56.00454 10514 ft 249 kts 295°
2026-04-10 20:07 24.87963 55.98670 10015 ft 242 kts 264°
2026-04-10 20:07 24.87672 55.96861 9542 ft 241 kts 259°
2026-04-10 20:08 24.87367 55.95049 9158 ft 240 kts 258°
2026-04-10 20:08 24.87072 55.93273 8954 ft 230 kts 258°
2026-04-10 20:08 24.86787 55.91576 8766 ft 221 kts 258°
2026-04-10 20:08 24.86512 55.89943 8509 ft 213 kts 258°
2026-04-10 20:09 24.86246 55.88365 8121 ft 212 kts 257°
2026-04-10 20:09 24.85974 55.86762 7703 ft 213 kts 257°
2026-04-10 20:09 24.85702 55.85159 7324 ft 213 kts 256°
2026-04-10 20:09 24.85431 55.83567 6979 ft 210 kts 256°
2026-04-10 20:10 24.85175 55.82052 6941 ft 195 kts 256°
2026-04-10 20:10 24.84924 55.80576 6702 ft 198 kts 255°
2026-04-10 20:10 24.84668 55.79082 6488 ft 201 kts 255°
2026-04-10 20:10 24.84404 55.77546 6176 ft 207 kts 256°
2026-04-10 20:11 24.84133 55.75968 5902 ft 212 kts 256°
2026-04-10 20:11 24.83860 55.74374 5683 ft 216 kts 257°
2026-04-10 20:11 24.83580 55.72734 5475 ft 219 kts 257°
2026-04-10 20:11 24.83297 55.71079 5335 ft 221 kts 258°
2026-04-10 20:12 24.83014 55.69421 5230 ft 220 kts 258°
2026-04-10 20:12 24.82732 55.67768 5138 ft 219 kts 258°
2026-04-10 20:12 24.82449 55.66119 5002 ft 220 kts 258°
2026-04-10 20:12 24.82166 55.64467 4868 ft 220 kts 258°
2026-04-10 20:13 24.81882 55.62811 4733 ft 220 kts 258°
2026-04-10 20:13 24.81599 55.61159 4600 ft 220 kts 258°
2026-04-10 20:13 24.81318 55.59525 4466 ft 220 kts 258°
2026-04-10 20:13 24.81030 55.57849 4332 ft 220 kts 258°
2026-04-10 20:14 24.80749 55.56215 4193 ft 220 kts 258°
2026-04-10 20:14 24.80465 55.54560 4064 ft 220 kts 258°
2026-04-10 20:14 24.80180 55.52909 3976 ft 217 kts 259°
2026-04-10 20:14 24.79903 55.51297 3800 ft 214 kts 259°
2026-04-10 20:15 24.79719 55.50234 3707 ft 212 kts 259°
2026-04-10 20:15 24.79447 55.48654 3576 ft 205 kts 259°
2026-04-10 20:15 24.79190 55.47162 3381 ft 194 kts 259°
2026-04-10 20:15 24.78942 55.45726 3101 ft 191 kts 259°
2026-04-10 20:16 24.78613 55.43827 3021 ft 193 kts 259°
2026-04-10 20:16 24.78363 55.42384 2975 ft 191 kts 259°
2026-04-10 20:16 24.78117 55.40960 2970 ft 188 kts 259°
2026-04-10 20:16 24.77954 55.40023 2966 ft 188 kts 259°
2026-04-10 20:17 24.77713 55.38615 2963 ft 187 kts 262°
2026-04-10 20:17 24.77926 55.37248 2954 ft 182 kts 301°
2026-04-10 20:17 24.78619 55.36103 2968 ft 179 kts 301°
2026-04-10 20:17 24.79256 55.34950 2981 ft 174 kts 301°
2026-04-10 20:18 24.79874 55.33827 2961 ft 168 kts 301°
2026-04-10 20:18 24.80470 55.32749 2949 ft 161 kts 300°
2026-04-10 20:18 24.81038 55.31722 2930 ft 153 kts 300°
2026-04-10 20:18 24.81595 55.30712 2712 ft 154 kts 300°
2026-04-10 20:19 24.82144 55.29719 2548 ft 155 kts 300°
2026-04-10 20:19 24.82704 55.28703 2360 ft 155 kts 301°
2026-04-10 20:19 24.83264 55.27690 2149 ft 154 kts 302°
2026-04-10 20:19 24.83816 55.26689 1961 ft 152 kts 302°
2026-04-10 20:20 24.84366 55.25692 1750 ft 152 kts 302°
2026-04-10 20:20 24.84912 55.24701 1543 ft 151 kts 303°
2026-04-10 20:20 24.85444 55.23740 1349 ft 143 kts 303°
2026-04-10 20:20 24.85958 55.22811 1171 ft 141 kts 303°
2026-04-10 20:21 24.86473 55.21876 1002 ft 145 kts 304°
2026-04-10 20:21 24.87003 55.20916 812 ft 148 kts 303°
2026-04-10 20:21 24.87527 55.19961 611 ft 146 kts 303°
2026-04-10 20:21 24.88046 55.19021 458 ft 143 kts 303°
2026-04-10 20:22 24.88564 55.18076 233 ft 144 kts 304°
2026-04-10 20:22 24.89067 55.17182 156 ft 126 kts 301°
2026-04-10 20:22 24.89426 55.16537 145 ft 72 kts 302°
2026-04-10 20:22 24.89677 55.16083 138 ft 67 kts 301°
2026-04-10 20:23 24.89907 55.15668 130 ft 56 kts 301°
2026-04-10 20:23 24.89991 55.15422 126 ft 28 kts 277°
2026-04-10 20:23 24.89996 55.15234 126 ft 21 kts 271°
2026-04-10 20:23 24.89994 55.15077 124 ft 20 kts 248°
2026-04-10 20:24 24.89890 55.14984 125 ft 18 kts 211°
2026-04-10 20:24 24.89792 55.14921 124 ft 15 kts 210°
2026-04-10 20:24 24.89722 55.14881 125 ft 10 kts 191°
2026-04-10 20:24 24.89663 55.14919 123 ft 11 kts 126°
2026-04-10 20:25 24.89618 55.14991 127 ft 11 kts 122°
2026-04-10 20:25 24.89577 55.15064 125 ft 11 kts 122°
2026-04-10 20:25 24.89536 55.15137 130 ft 11 kts 122°
2026-04-10 20:25 24.89496 55.15210 124 ft 11 kts 121°
2026-04-10 20:26 24.89455 55.15284 130 ft 11 kts 121°
2026-04-10 20:26 24.89412 55.15351 129 ft 9 kts 147°
2026-04-10 20:26 24.89355 55.15333 128 ft 9 kts 204°
2026-04-10 20:26 24.89320 55.15313 127 ft 0 kts 210°